createdAt,value
2023-05-20T00:02:06.671Z,14.61
2023-05-20T00:04:33.373Z,14.72
2023-05-20T00:07:00.035Z,14.65
2023-05-20T00:09:26.895Z,14.60
2023-05-20T00:11:53.475Z,14.67
2023-05-20T00:14:20.093Z,14.68
2023-05-20T00:16:47.019Z,14.61
2023-05-20T00:19:13.759Z,14.46
2023-05-20T00:21:40.563Z,14.67
2023-05-20T00:24:07.135Z,14.63
2023-05-20T00:26:33.818Z,14.63
2023-05-20T00:29:01.148Z,14.57
2023-05-20T00:31:27.752Z,14.63
2023-05-20T00:33:54.435Z,14.52
2023-05-20T00:36:21.097Z,14.60
2023-05-20T00:38:47.878Z,14.43
2023-05-20T00:41:14.502Z,14.51
2023-05-20T00:43:41.500Z,14.63
2023-05-20T00:46:08.747Z,14.49
2023-05-20T00:48:43.830Z,14.43
2023-05-20T00:51:13.031Z,14.40
2023-05-20T00:53:40.034Z,14.39
2023-05-20T00:56:08.153Z,14.25
2023-05-20T00:58:39.019Z,14.31
2023-05-20T01:01:06.595Z,14.32
2023-05-20T01:03:33.781Z,14.32
2023-05-20T01:06:01.163Z,14.29
2023-05-20T01:08:28.569Z,14.26
2023-05-20T01:11:04.987Z,14.26
2023-05-20T01:13:43.183Z,14.37
2023-05-20T01:16:11.543Z,14.18
2023-05-20T01:18:39.569Z,14.05
2023-05-20T01:21:10.542Z,14.10
2023-05-20T01:23:41.535Z,14.13
2023-05-20T01:26:09.308Z,14.13
2023-05-20T01:28:38.684Z,14.05
2023-05-20T01:31:10.978Z,14.04
2023-05-20T01:33:42.064Z,14.21
2023-05-20T01:36:10.111Z,14.09
2023-05-20T01:38:40.069Z,14.05
2023-05-20T01:41:07.381Z,14.11
2023-05-20T01:43:35.045Z,14.14
2023-05-20T01:46:02.906Z,14.16
2023-05-20T01:48:29.648Z,14.18
2023-05-20T01:50:56.440Z,14.15
2023-05-20T01:53:23.175Z,14.10
2023-05-20T01:55:49.865Z,14.14
2023-05-20T01:58:16.559Z,14.05
2023-05-20T02:00:43.856Z,13.89
2023-05-20T02:03:11.273Z,13.94
2023-05-20T02:05:39.166Z,13.98
2023-05-20T02:08:06.391Z,14.07
2023-05-20T02:10:33.235Z,14.01
2023-05-20T02:12:59.845Z,14.03
2023-05-20T02:15:26.521Z,13.85
2023-05-20T02:17:53.840Z,13.83
2023-05-20T02:20:20.569Z,13.87
2023-05-20T02:22:47.186Z,13.91
2023-05-20T02:25:13.931Z,13.83
2023-05-20T02:27:40.783Z,13.89
2023-05-20T02:30:08.358Z,13.84
2023-05-20T02:32:35.841Z,13.77
2023-05-20T02:35:02.548Z,13.65
2023-05-20T02:37:29.593Z,13.60
2023-05-20T02:39:56.304Z,13.60
2023-05-20T02:42:23.009Z,13.61
2023-05-20T02:44:50.193Z,13.49
2023-05-20T02:47:18.070Z,13.57
2023-05-20T02:49:44.827Z,13.30
2023-05-20T02:52:11.565Z,13.41
2023-05-20T02:54:38.715Z,13.38
2023-05-20T02:57:05.581Z,13.30
2023-05-20T02:59:32.258Z,13.30
2023-05-20T03:01:59.112Z,13.22
2023-05-20T03:04:27.044Z,13.10
2023-05-20T03:06:53.835Z,13.04
2023-05-20T03:09:22.460Z,13.18
2023-05-20T03:11:49.841Z,13.18
2023-05-20T03:14:16.879Z,13.21
2023-05-20T03:16:44.136Z,13.18
2023-05-20T03:19:11.015Z,12.99
2023-05-20T03:21:37.768Z,12.77
2023-05-20T03:24:04.749Z,12.87
2023-05-20T03:26:33.245Z,12.81
2023-05-20T03:28:59.840Z,12.79
2023-05-20T03:31:27.379Z,12.62
2023-05-20T03:33:54.136Z,12.73
2023-05-20T03:36:21.085Z,12.78
2023-05-20T03:38:48.277Z,12.69
2023-05-20T03:41:15.012Z,12.48
2023-05-20T03:43:41.839Z,12.66
2023-05-20T03:46:08.523Z,12.67
2023-05-20T03:48:36.125Z,12.51
2023-05-20T03:51:04.132Z,12.52
2023-05-20T03:53:30.967Z,12.60
2023-05-20T03:55:57.661Z,12.55
2023-05-20T03:58:25.254Z,12.55
2023-05-20T04:00:51.998Z,12.48
2023-05-20T04:03:18.859Z,12.36
2023-05-20T04:05:46.582Z,12.47
2023-05-20T04:08:18.939Z,12.44
2023-05-20T04:10:46.417Z,12.30
2023-05-20T04:13:13.162Z,12.53
2023-05-20T04:15:41.461Z,12.42
2023-05-20T04:18:08.629Z,12.27
2023-05-20T04:20:36.039Z,12.33
2023-05-20T04:23:02.678Z,12.34
2023-05-20T04:25:30.060Z,12.54
2023-05-20T04:27:57.719Z,12.34
2023-05-20T04:30:24.644Z,12.31
2023-05-20T04:32:51.918Z,12.57
2023-05-20T04:35:19.300Z,12.44
2023-05-20T04:37:48.318Z,12.51
2023-05-20T04:40:15.574Z,12.51
2023-05-20T04:42:43.555Z,12.61
2023-05-20T04:45:12.418Z,12.60
2023-05-20T04:47:40.420Z,12.64
2023-05-20T04:50:13.485Z,12.69
2023-05-20T04:52:42.950Z,12.66
2023-05-20T04:55:15.867Z,12.65
2023-05-20T04:57:43.613Z,12.67
2023-05-20T05:00:12.595Z,12.65
2023-05-20T05:02:40.216Z,12.70
2023-05-20T05:05:07.738Z,12.72
2023-05-20T05:07:34.529Z,12.89
2023-05-20T05:10:01.701Z,12.66
2023-05-20T05:12:30.376Z,12.86
2023-05-20T05:14:58.810Z,12.93
2023-05-20T05:17:26.350Z,13.04
2023-05-20T05:19:53.007Z,13.07
2023-05-20T05:22:19.987Z,12.82
2023-05-20T05:24:47.067Z,12.75
2023-05-20T05:27:13.938Z,12.76
2023-05-20T05:29:40.886Z,12.87
2023-05-20T05:32:07.749Z,13.05
2023-05-20T05:34:34.311Z,13.10
2023-05-20T05:37:01.066Z,13.05
2023-05-20T05:39:27.688Z,12.99
2023-05-20T05:41:56.203Z,13.00
2023-05-20T05:44:23.113Z,13.17
2023-05-20T05:46:49.754Z,13.13
2023-05-20T05:49:17.193Z,13.25
2023-05-20T05:51:44.392Z,13.48
2023-05-20T05:54:11.506Z,13.37
2023-05-20T05:56:38.174Z,13.58
2023-05-20T05:59:05.517Z,13.46
2023-05-20T06:01:32.194Z,13.62
2023-05-20T06:03:59.758Z,13.64
2023-05-20T06:06:26.912Z,13.53
2023-05-20T06:08:54.076Z,13.56
2023-05-20T06:11:21.760Z,13.43
2023-05-20T06:13:48.504Z,13.72
2023-05-20T06:16:15.596Z,13.61
2023-05-20T06:18:43.030Z,13.32
2023-05-20T06:21:09.704Z,13.52
2023-05-20T06:23:36.763Z,13.69
2023-05-20T06:26:05.869Z,13.50
2023-05-20T06:28:32.766Z,13.66
2023-05-20T06:30:59.447Z,13.75
2023-05-20T06:33:28.541Z,13.66
2023-05-20T06:36:01.667Z,13.73
2023-05-20T06:38:28.719Z,13.80
2023-05-20T06:40:56.083Z,14.08
2023-05-20T06:43:22.903Z,14.03
2023-05-20T06:46:02.381Z,14.02
2023-05-20T06:48:35.161Z,14.19
2023-05-20T06:51:01.869Z,14.07
2023-05-20T06:53:28.536Z,14.25
2023-05-20T06:55:58.153Z,14.33
2023-05-20T06:58:25.906Z,14.41
2023-05-20T07:00:54.874Z,14.41
2023-05-20T07:03:21.714Z,14.55
2023-05-20T07:05:48.471Z,14.74
2023-05-20T07:08:15.334Z,14.79
2023-05-20T07:10:42.276Z,14.79
2023-05-20T07:13:08.988Z,14.70
2023-05-20T07:15:35.917Z,14.62
2023-05-20T07:18:02.945Z,14.77
2023-05-20T07:20:29.773Z,14.76
2023-05-20T07:22:58.397Z,14.80
2023-05-20T07:25:32.357Z,14.74
2023-05-20T07:28:00.469Z,14.88
2023-05-20T07:30:27.473Z,14.88
2023-05-20T07:33:10.142Z,14.85
2023-05-20T07:35:37.118Z,14.90
2023-05-20T07:38:03.868Z,15.18
2023-05-20T07:40:30.983Z,15.13
2023-05-20T07:42:57.623Z,15.04
2023-05-20T07:45:25.729Z,15.24
2023-05-20T07:47:52.453Z,15.12
2023-05-20T07:50:19.207Z,15.24
2023-05-20T07:52:55.902Z,15.32
2023-05-20T07:55:25.235Z,15.71
2023-05-20T07:57:52.291Z,15.47
2023-05-20T08:00:19.870Z,15.69
2023-05-20T08:02:46.579Z,15.78
2023-05-20T08:05:18.280Z,15.82
2023-05-20T08:07:46.398Z,15.73
2023-05-20T08:10:14.820Z,15.83
2023-05-20T08:12:42.725Z,15.85
2023-05-20T08:15:09.974Z,15.97
2023-05-20T08:17:38.677Z,15.86
2023-05-20T08:20:08.153Z,16.02
2023-05-20T08:22:37.522Z,16.23
2023-05-20T08:25:04.689Z,16.15
2023-05-20T08:27:31.554Z,16.06
2023-05-20T08:30:00.595Z,16.30
2023-05-20T08:32:28.036Z,16.32
2023-05-20T08:34:54.711Z,16.60
2023-05-20T08:37:21.966Z,16.85
2023-05-20T08:39:49.993Z,16.78
2023-05-20T08:42:21.772Z,16.95
2023-05-20T08:44:48.626Z,16.73
2023-05-20T08:47:15.487Z,16.70
2023-05-20T08:49:42.358Z,16.90
2023-05-20T08:52:11.434Z,17.04
2023-05-20T08:54:48.579Z,17.25
2023-05-20T08:57:15.732Z,17.41
2023-05-20T08:59:49.803Z,17.65
2023-05-20T09:02:17.478Z,17.90
2023-05-20T09:04:44.196Z,17.81
2023-05-20T09:07:10.923Z,18.03
2023-05-20T09:09:37.659Z,17.94
2023-05-20T09:12:04.772Z,18.00
2023-05-20T09:14:31.883Z,17.76
2023-05-20T09:16:58.658Z,18.19
2023-05-20T09:19:26.383Z,18.47
2023-05-20T09:21:54.850Z,18.60
2023-05-20T09:24:25.196Z,18.67
2023-05-20T09:26:52.729Z,18.67
2023-05-20T09:29:22.316Z,18.63
2023-05-20T09:31:50.176Z,18.21
2023-05-20T09:34:17.782Z,18.36
2023-05-20T09:36:45.245Z,18.42
2023-05-20T09:39:17.179Z,18.71
2023-05-20T09:41:55.434Z,18.64
2023-05-20T09:44:23.408Z,18.46
2023-05-20T09:46:50.923Z,18.68
2023-05-20T09:49:20.884Z,18.68
2023-05-20T09:51:48.260Z,18.53
2023-05-20T09:54:17.979Z,18.99
2023-05-20T09:56:46.346Z,18.71
2023-05-20T09:59:16.396Z,18.53
2023-05-20T10:01:45.071Z,18.36
2023-05-20T10:04:16.179Z,18.31
2023-05-20T10:07:30.528Z,18.54
2023-05-20T10:10:18.875Z,18.68
2023-05-20T10:13:22.929Z,18.79
2023-05-20T10:16:16.162Z,19.51
2023-05-20T10:19:22.769Z,19.98
2023-05-20T10:22:02.693Z,19.86
2023-05-20T10:24:34.402Z,19.63
2023-05-20T10:27:07.823Z,20.01
2023-05-20T10:29:52.036Z,19.74
2023-05-20T10:32:29.832Z,19.73
2023-05-20T10:35:05.498Z,19.16
2023-05-20T10:37:34.617Z,18.86
2023-05-20T10:40:14.140Z,18.96
2023-05-20T10:42:43.064Z,19.26
2023-05-20T10:45:10.637Z,19.51
2023-05-20T10:47:42.126Z,19.74
2023-05-20T10:50:26.604Z,19.18
2023-05-20T10:52:53.379Z,19.40
2023-05-20T10:55:22.364Z,19.51
2023-05-20T10:57:48.985Z,19.57
2023-05-20T11:00:18.728Z,19.86
2023-05-20T11:02:46.300Z,20.35
2023-05-20T11:05:14.662Z,20.72
2023-05-20T11:07:41.442Z,20.53
2023-05-20T11:10:11.923Z,20.23
2023-05-20T11:12:39.611Z,19.84
2023-05-20T11:15:06.750Z,19.51
2023-05-20T11:17:33.390Z,19.41
2023-05-20T11:20:01.075Z,19.47
2023-05-20T11:22:27.753Z,19.12
2023-05-20T11:24:54.400Z,19.09
2023-05-20T11:27:21.456Z,18.91
2023-05-20T11:29:50.971Z,19.17
2023-05-20T11:32:20.722Z,19.27
2023-05-20T11:34:51.733Z,19.41
2023-05-20T11:37:18.914Z,18.95
2023-05-20T11:39:46.147Z,18.84
2023-05-20T11:42:15.306Z,18.85
2023-05-20T11:44:45.425Z,19.35
2023-05-20T11:47:12.116Z,19.92
2023-05-20T11:49:41.767Z,19.94
2023-05-20T11:52:11.099Z,19.79
2023-05-20T11:54:37.676Z,19.58
2023-05-20T11:57:06.881Z,19.29
2023-05-20T11:59:33.704Z,19.38
2023-05-20T12:02:00.301Z,19.19
2023-05-20T12:04:27.302Z,19.19
2023-05-20T12:06:54.111Z,19.31
2023-05-20T12:09:22.711Z,19.87
2023-05-20T12:11:49.411Z,19.90
2023-05-20T12:14:16.385Z,19.57
2023-05-20T12:16:43.097Z,19.53
2023-05-20T12:19:09.806Z,19.65
2023-05-20T12:21:36.668Z,19.62
2023-05-20T12:24:05.317Z,19.55
2023-05-20T12:26:33.329Z,19.51
2023-05-20T12:28:59.997Z,19.64
2023-05-20T12:31:26.714Z,19.57
2023-05-20T12:33:53.412Z,19.60
2023-05-20T12:36:20.286Z,20.03
2023-05-20T12:38:47.399Z,19.87
2023-05-20T12:41:14.162Z,20.28
2023-05-20T12:43:40.784Z,20.54
2023-05-20T12:46:07.702Z,20.23
2023-05-20T12:48:34.500Z,19.89
2023-05-20T12:51:01.435Z,20.02
2023-05-20T12:53:28.059Z,20.43
2023-05-20T12:55:55.195Z,20.84
2023-05-20T12:58:21.914Z,20.84
2023-05-20T13:00:48.774Z,20.36
2023-05-20T13:03:15.661Z,20.07
2023-05-20T13:05:42.345Z,19.80
2023-05-20T13:08:10.158Z,20.34
2023-05-20T13:10:37.273Z,20.63
2023-05-20T13:13:04.413Z,20.58
2023-05-20T13:15:33.020Z,20.03
2023-05-20T13:18:01.507Z,19.77
2023-05-20T13:20:29.077Z,19.80
2023-05-20T13:22:55.715Z,19.84
2023-05-20T13:25:22.360Z,19.60
2023-05-20T13:27:49.055Z,19.33
2023-05-20T13:30:17.343Z,19.64
2023-05-20T13:32:44.025Z,19.63
2023-05-20T13:35:14.620Z,19.98
2023-05-20T13:37:41.399Z,19.80
2023-05-20T13:40:09.394Z,19.90
2023-05-20T13:42:38.146Z,19.63
2023-05-20T13:45:05.151Z,19.71
2023-05-20T13:47:32.202Z,19.41
2023-05-20T13:50:01.307Z,19.38
2023-05-20T13:52:29.432Z,19.87
2023-05-20T13:54:56.056Z,20.00
2023-05-20T13:57:23.459Z,20.15
2023-05-20T13:59:51.027Z,19.82
2023-05-20T14:02:17.984Z,19.85
2023-05-20T14:04:46.905Z,19.88
2023-05-20T14:07:13.922Z,19.74
2023-05-20T14:09:40.734Z,19.84
2023-05-20T14:12:07.585Z,20.15
2023-05-20T14:14:34.256Z,20.27
2023-05-20T14:17:00.914Z,20.05
2023-05-20T14:19:27.668Z,19.89
2023-05-20T14:21:54.752Z,19.29
2023-05-20T14:24:23.610Z,19.46
2023-05-20T14:26:50.721Z,19.70
2023-05-20T14:29:17.775Z,19.59
2023-05-20T14:31:44.830Z,19.80
2023-05-20T14:34:11.633Z,19.66
2023-05-20T14:36:38.769Z,19.42
2023-05-20T14:39:05.696Z,19.74
2023-05-20T14:41:32.367Z,19.57
2023-05-20T14:43:59.134Z,19.97
2023-05-20T14:46:27.009Z,19.88
2023-05-20T14:48:53.677Z,19.43
2023-05-20T14:51:20.351Z,19.62
2023-05-20T14:53:46.970Z,19.55
2023-05-20T14:56:13.678Z,19.62
2023-05-20T14:58:40.742Z,19.66
2023-05-20T15:01:07.457Z,19.27
2023-05-20T15:03:34.370Z,19.16
2023-05-20T15:06:01.128Z,19.05
2023-05-20T15:08:27.702Z,19.12
2023-05-20T15:10:54.430Z,19.23
2023-05-20T15:13:21.221Z,19.38
2023-05-20T15:15:47.812Z,19.29
2023-05-20T15:18:14.513Z,19.23
2023-05-20T15:20:41.532Z,19.30
2023-05-20T15:23:08.502Z,19.29
2023-05-20T15:25:35.961Z,19.31
2023-05-20T15:28:02.972Z,19.36
2023-05-20T15:30:29.600Z,19.31
2023-05-20T15:32:57.093Z,19.61
2023-05-20T15:35:23.780Z,18.99
2023-05-20T15:37:50.725Z,18.86
2023-05-20T15:40:18.166Z,18.79
2023-05-20T15:42:45.055Z,18.94
2023-05-20T15:45:11.930Z,18.75
2023-05-20T15:47:40.717Z,18.55
2023-05-20T15:50:08.631Z,18.75
2023-05-20T15:52:35.471Z,18.93
2023-05-20T15:55:02.461Z,19.26
2023-05-20T15:57:30.635Z,18.83
2023-05-20T15:59:57.618Z,18.71
2023-05-20T16:02:24.934Z,18.72
2023-05-20T16:04:52.323Z,18.61
2023-05-20T16:07:19.235Z,18.51
2023-05-20T16:09:46.401Z,18.36
2023-05-20T16:12:13.060Z,18.48
2023-05-20T16:14:39.862Z,18.51
2023-05-20T16:17:06.425Z,18.61
2023-05-20T16:19:33.307Z,18.61
2023-05-20T16:22:00.197Z,18.57
2023-05-20T16:24:27.016Z,18.54
2023-05-20T16:26:54.105Z,18.39
2023-05-20T16:29:20.925Z,18.31
2023-05-20T16:31:47.795Z,18.50
2023-05-20T16:34:15.772Z,18.37
2023-05-20T16:36:42.356Z,18.14
2023-05-20T16:39:09.061Z,18.15
2023-05-20T16:41:35.758Z,18.16
2023-05-20T16:44:02.470Z,18.20
2023-05-20T16:46:29.204Z,18.24
2023-05-20T16:48:56.039Z,18.41
2023-05-20T16:51:23.794Z,18.32
2023-05-20T16:53:50.599Z,18.00
2023-05-20T16:56:17.401Z,18.08
2023-05-20T16:58:44.042Z,18.19
2023-05-20T17:01:10.684Z,18.08
2023-05-20T17:03:37.285Z,18.18
2023-05-20T17:06:04.020Z,18.31
2023-05-20T17:08:30.796Z,18.13
2023-05-20T17:10:59.655Z,18.33
2023-05-20T17:13:26.413Z,18.39
2023-05-20T17:15:53.131Z,18.52
2023-05-20T17:18:19.887Z,18.37
2023-05-20T17:20:46.546Z,18.20
2023-05-20T17:23:14.776Z,18.21
2023-05-20T17:25:41.453Z,18.22
2023-05-20T17:28:08.241Z,18.31
2023-05-20T17:30:35.054Z,18.14
2023-05-20T17:33:01.901Z,18.09
2023-05-20T17:35:28.775Z,17.97
2023-05-20T17:37:55.529Z,17.97
2023-05-20T17:40:22.388Z,18.07
2023-05-20T17:42:49.107Z,18.10
2023-05-20T17:45:19.234Z,18.21
2023-05-20T17:47:45.977Z,17.89
2023-05-20T17:50:14.641Z,17.98
2023-05-20T17:52:41.405Z,17.94
2023-05-20T17:55:08.885Z,17.92
2023-05-20T17:57:35.598Z,17.90
2023-05-20T18:00:02.349Z,17.85
2023-05-20T18:02:31.860Z,17.90
2023-05-20T18:04:58.662Z,17.84
2023-05-20T18:07:26.474Z,17.78
2023-05-20T18:09:53.077Z,17.87
2023-05-20T18:12:19.712Z,18.03
2023-05-20T18:14:46.546Z,17.91
2023-05-20T18:17:13.193Z,17.91
2023-05-20T18:19:39.887Z,18.01
2023-05-20T18:22:07.324Z,17.83
2023-05-20T18:24:34.026Z,17.52
2023-05-20T18:27:01.014Z,17.72
2023-05-20T18:29:27.604Z,17.87
2023-05-20T18:31:54.339Z,17.73
2023-05-20T18:34:21.286Z,17.74
2023-05-20T18:36:48.454Z,17.65
2023-05-20T18:39:20.227Z,17.55
2023-05-20T18:41:47.766Z,17.54
2023-05-20T18:44:15.542Z,17.51
2023-05-20T18:46:42.495Z,17.31
2023-05-20T18:49:13.061Z,17.41
2023-05-20T18:51:40.803Z,17.38
2023-05-20T18:54:07.708Z,17.41
2023-05-20T18:56:34.846Z,17.35
2023-05-20T18:59:01.719Z,17.45
2023-05-20T19:01:28.446Z,17.32
2023-05-20T19:03:55.156Z,17.40
2023-05-20T19:06:21.856Z,17.52
2023-05-20T19:08:49.473Z,17.57
2023-05-20T19:11:16.456Z,17.66
2023-05-20T19:13:43.132Z,17.69
2023-05-20T19:16:09.984Z,17.69
2023-05-20T19:18:36.664Z,17.68
2023-05-20T19:21:03.441Z,17.72
2023-05-20T19:23:30.508Z,17.73
2023-05-20T19:25:57.175Z,17.71
2023-05-20T19:28:23.839Z,17.71
2023-05-20T19:30:50.542Z,17.60
2023-05-20T19:33:17.276Z,17.58
2023-05-20T19:35:43.981Z,17.62
2023-05-20T19:38:10.667Z,17.62
2023-05-20T19:40:37.454Z,17.54
2023-05-20T19:43:04.347Z,17.50
2023-05-20T19:45:31.179Z,17.69
2023-05-20T19:47:58.313Z,17.56
2023-05-20T19:50:25.320Z,17.62
2023-05-20T19:52:52.392Z,17.57
2023-05-20T19:55:19.090Z,17.60
2023-05-20T19:57:47.591Z,17.65
2023-05-20T20:00:15.716Z,17.64
2023-05-20T20:02:42.456Z,17.60
2023-05-20T20:05:10.477Z,17.60
2023-05-20T20:07:37.359Z,17.60
2023-05-20T20:10:04.283Z,17.42
2023-05-20T20:12:30.884Z,17.28
2023-05-20T20:14:57.464Z,17.32
2023-05-20T20:17:24.255Z,17.41
2023-05-20T20:19:53.288Z,17.25
2023-05-20T20:22:20.149Z,17.17
2023-05-20T20:24:47.092Z,17.33
2023-05-20T20:27:13.893Z,17.26
2023-05-20T20:29:43.478Z,17.27
2023-05-20T20:32:10.884Z,17.01
2023-05-20T20:34:37.548Z,16.93
2023-05-20T20:37:04.371Z,16.94
2023-05-20T20:39:31.024Z,17.08
2023-05-20T20:41:58.992Z,16.99
2023-05-20T20:44:26.570Z,16.91
2023-05-20T20:46:55.009Z,16.78
2023-05-20T20:49:23.051Z,16.76
2023-05-20T20:51:50.204Z,16.81
2023-05-20T20:54:16.867Z,16.73
2023-05-20T20:56:45.551Z,16.75
2023-05-20T20:59:13.455Z,16.80
2023-05-20T21:01:41.812Z,16.82
2023-05-20T21:04:09.282Z,16.70
2023-05-20T21:06:37.796Z,16.65
2023-05-20T21:09:04.736Z,16.61
2023-05-20T21:11:31.769Z,16.58
2023-05-20T21:13:58.678Z,16.51
2023-05-20T21:16:25.601Z,16.41
2023-05-20T21:18:52.484Z,16.55
2023-05-20T21:21:21.694Z,16.52
2023-05-20T21:23:50.801Z,16.25
2023-05-20T21:26:17.616Z,16.31
2023-05-20T21:28:44.236Z,16.35
2023-05-20T21:31:10.950Z,16.22
2023-05-20T21:33:37.573Z,16.33
2023-05-20T21:36:04.753Z,16.29
2023-05-20T21:38:31.399Z,16.38
2023-05-20T21:40:58.646Z,16.27
2023-05-20T21:43:25.425Z,16.28
2023-05-20T21:45:52.265Z,16.33
2023-05-20T21:48:18.883Z,16.18
2023-05-20T21:50:45.600Z,16.16
2023-05-20T21:53:12.169Z,16.38
2023-05-20T21:55:39.341Z,16.46
2023-05-20T21:58:05.998Z,16.33
2023-05-20T22:00:32.814Z,16.30
2023-05-20T22:02:59.448Z,16.23
2023-05-20T22:05:26.359Z,16.26
2023-05-20T22:07:53.130Z,16.32
2023-05-20T22:10:20.931Z,16.19
2023-05-20T22:12:47.690Z,16.24
2023-05-20T22:15:17.477Z,16.15
2023-05-20T22:17:44.729Z,16.21
2023-05-20T22:20:12.619Z,16.19
2023-05-20T22:22:39.330Z,16.10
2023-05-20T22:25:06.839Z,16.18
2023-05-20T22:27:34.804Z,16.11
2023-05-20T22:30:01.898Z,15.92
2023-05-20T22:32:28.655Z,15.94
2023-05-20T22:34:58.542Z,16.05
2023-05-20T22:37:28.763Z,15.99
2023-05-20T22:39:56.337Z,16.02
2023-05-20T22:42:23.200Z,15.88
2023-05-20T22:44:50.077Z,15.90
2023-05-20T22:47:16.747Z,15.91
2023-05-20T22:49:44.951Z,15.90
2023-05-20T22:52:11.732Z,15.84
2023-05-20T22:54:38.363Z,15.84
2023-05-20T22:57:05.419Z,15.91
2023-05-20T22:59:32.800Z,15.81
2023-05-20T23:01:59.462Z,15.75
2023-05-20T23:04:26.225Z,15.71
2023-05-20T23:06:53.824Z,15.65
2023-05-20T23:09:21.014Z,15.58
2023-05-20T23:11:47.797Z,15.52
2023-05-20T23:14:14.430Z,15.64
2023-05-20T23:16:42.023Z,15.73
2023-05-20T23:19:09.164Z,15.56
2023-05-20T23:21:37.323Z,15.39
2023-05-20T23:24:04.521Z,15.61
2023-05-20T23:26:31.479Z,15.49
2023-05-20T23:28:58.204Z,15.44
2023-05-20T23:31:26.826Z,15.46
2023-05-20T23:33:54.050Z,15.44
2023-05-20T23:36:22.995Z,15.35
2023-05-20T23:38:49.709Z,15.36
2023-05-20T23:41:16.366Z,15.33
2023-05-20T23:43:43.023Z,15.41
2023-05-20T23:46:09.826Z,15.45
2023-05-20T23:48:36.664Z,15.45
2023-05-20T23:51:03.431Z,15.45
2023-05-20T23:53:30.127Z,15.30
2023-05-20T23:55:56.802Z,15.28
2023-05-20T23:58:23.666Z,15.24
